sensor_id;sensor_type;location;lat;lon;timestamp;P1;durP1;ratioP1;P2;durP2;ratioP2
20559;SDS011;10438;51.454;6.718;2023-05-10T00:01:55;37.73;;;17.67;;
20559;SDS011;10438;51.454;6.718;2023-05-10T00:04:21;38.63;;;18.47;;
20559;SDS011;10438;51.454;6.718;2023-05-10T00:06:46;40.23;;;18.17;;
20559;SDS011;10438;51.454;6.718;2023-05-10T00:09:12;40.17;;;17.10;;
20559;SDS011;10438;51.454;6.718;2023-05-10T00:11:38;40.87;;;17.50;;
20559;SDS011;10438;51.454;6.718;2023-05-10T00:14:04;35.63;;;16.97;;
20559;SDS011;10438;51.454;6.718;2023-05-10T00:16:30;42.43;;;17.10;;
20559;SDS011;10438;51.454;6.718;2023-05-10T00:18:55;36.63;;;16.77;;
20559;SDS011;10438;51.454;6.718;2023-05-10T00:21:21;41.40;;;17.23;;
20559;SDS011;10438;51.454;6.718;2023-05-10T00:23:46;36.10;;;16.50;;
20559;SDS011;10438;51.454;6.718;2023-05-10T00:26:12;38.87;;;17.23;;
20559;SDS011;10438;51.454;6.718;2023-05-10T00:28:38;38.77;;;17.23;;
20559;SDS011;10438;51.454;6.718;2023-05-10T00:31:04;45.33;;;19.60;;
20559;SDS011;10438;51.454;6.718;2023-05-10T00:33:29;37.17;;;16.97;;
20559;SDS011;10438;51.454;6.718;2023-05-10T00:35:55;38.93;;;17.73;;
20559;SDS011;10438;51.454;6.718;2023-05-10T00:38:21;47.93;;;17.57;;
20559;SDS011;10438;51.454;6.718;2023-05-10T00:40:46;39.27;;;17.80;;
20559;SDS011;10438;51.454;6.718;2023-05-10T00:43:12;41.03;;;18.33;;
20559;SDS011;10438;51.454;6.718;2023-05-10T00:45:37;37.30;;;17.47;;
20559;SDS011;10438;51.454;6.718;2023-05-10T00:48:05;36.00;;;17.50;;
20559;SDS011;10438;51.454;6.718;2023-05-10T00:50:31;37.40;;;16.87;;
20559;SDS011;10438;51.454;6.718;2023-05-10T00:52:58;37.53;;;17.73;;
20559;SDS011;10438;51.454;6.718;2023-05-10T00:55:25;40.27;;;17.63;;
20559;SDS011;10438;51.454;6.718;2023-05-10T00:57:50;42.70;;;19.17;;
20559;SDS011;10438;51.454;6.718;2023-05-10T01:00:18;42.87;;;19.17;;
20559;SDS011;10438;51.454;6.718;2023-05-10T01:02:46;44.70;;;18.97;;
20559;SDS011;10438;51.454;6.718;2023-05-10T01:05:12;42.87;;;19.50;;
20559;SDS011;10438;51.454;6.718;2023-05-10T01:07:38;47.60;;;20.63;;
20559;SDS011;10438;51.454;6.718;2023-05-10T01:10:07;44.27;;;19.10;;
20559;SDS011;10438;51.454;6.718;2023-05-10T01:12:34;43.73;;;19.70;;
20559;SDS011;10438;51.454;6.718;2023-05-10T01:15:03;48.40;;;19.20;;
20559;SDS011;10438;51.454;6.718;2023-05-10T01:17:30;52.10;;;20.50;;
20559;SDS011;10438;51.454;6.718;2023-05-10T01:19:56;45.17;;;19.23;;
20559;SDS011;10438;51.454;6.718;2023-05-10T01:25:04;51.97;;;20.17;;
20559;SDS011;10438;51.454;6.718;2023-05-10T01:28:00;45.97;;;18.03;;
20559;SDS011;10438;51.454;6.718;2023-05-10T01:34:13;42.40;;;18.53;;
20559;SDS011;10438;51.454;6.718;2023-05-10T01:36:47;38.43;;;17.17;;
20559;SDS011;10438;51.454;6.718;2023-05-10T01:41:51;41.00;;;18.73;;
20559;SDS011;10438;51.454;6.718;2023-05-10T01:44:24;42.73;;;18.60;;
20559;SDS011;10438;51.454;6.718;2023-05-10T01:47:06;40.23;;;17.80;;
20559;SDS011;10438;51.454;6.718;2023-05-10T01:49:50;54.13;;;19.17;;
20559;SDS011;10438;51.454;6.718;2023-05-10T01:52:20;44.63;;;18.50;;
20559;SDS011;10438;51.454;6.718;2023-05-10T01:55:02;49.07;;;20.07;;
20559;SDS011;10438;51.454;6.718;2023-05-10T01:57:32;45.87;;;19.47;;
20559;SDS011;10438;51.454;6.718;2023-05-10T02:00:00;43.50;;;19.43;;
20559;SDS011;10438;51.454;6.718;2023-05-10T02:02:28;55.53;;;20.97;;
20559;SDS011;10438;51.454;6.718;2023-05-10T02:04:58;50.67;;;21.37;;
20559;SDS011;10438;51.454;6.718;2023-05-10T02:07:24;52.40;;;22.30;;
20559;SDS011;10438;51.454;6.718;2023-05-10T02:09:53;61.17;;;23.03;;
20559;SDS011;10438;51.454;6.718;2023-05-10T02:12:20;53.17;;;22.70;;
20559;SDS011;10438;51.454;6.718;2023-05-10T02:14:48;62.07;;;23.30;;
20559;SDS011;10438;51.454;6.718;2023-05-10T02:17:17;62.87;;;24.77;;
20559;SDS011;10438;51.454;6.718;2023-05-10T02:19:44;60.03;;;24.07;;
20559;SDS011;10438;51.454;6.718;2023-05-10T02:22:12;65.37;;;25.00;;
20559;SDS011;10438;51.454;6.718;2023-05-10T02:24:38;62.63;;;24.40;;
20559;SDS011;10438;51.454;6.718;2023-05-10T02:27:05;67.73;;;26.13;;
20559;SDS011;10438;51.454;6.718;2023-05-10T02:29:32;66.87;;;25.73;;
20559;SDS011;10438;51.454;6.718;2023-05-10T02:31:59;75.10;;;26.90;;
20559;SDS011;10438;51.454;6.718;2023-05-10T02:34:25;66.63;;;25.20;;
20559;SDS011;10438;51.454;6.718;2023-05-10T02:36:52;60.37;;;24.20;;
20559;SDS011;10438;51.454;6.718;2023-05-10T02:39:19;67.17;;;25.17;;
20559;SDS011;10438;51.454;6.718;2023-05-10T02:41:46;63.60;;;24.47;;
20559;SDS011;10438;51.454;6.718;2023-05-10T02:44:14;61.43;;;23.57;;
20559;SDS011;10438;51.454;6.718;2023-05-10T02:46:42;65.37;;;24.13;;
20559;SDS011;10438;51.454;6.718;2023-05-10T02:49:08;68.13;;;25.03;;
20559;SDS011;10438;51.454;6.718;2023-05-10T02:51:34;61.30;;;24.17;;
20559;SDS011;10438;51.454;6.718;2023-05-10T02:54:04;75.13;;;24.87;;
20559;SDS011;10438;51.454;6.718;2023-05-10T02:56:34;68.87;;;25.10;;
20559;SDS011;10438;51.454;6.718;2023-05-10T02:59:05;62.77;;;23.93;;
20559;SDS011;10438;51.454;6.718;2023-05-10T03:01:31;63.03;;;24.57;;
20559;SDS011;10438;51.454;6.718;2023-05-10T03:03:57;65.47;;;23.47;;
20559;SDS011;10438;51.454;6.718;2023-05-10T03:06:22;64.13;;;23.00;;
20559;SDS011;10438;51.454;6.718;2023-05-10T03:08:48;65.30;;;24.30;;
20559;SDS011;10438;51.454;6.718;2023-05-10T03:11:28;65.17;;;23.67;;
20559;SDS011;10438;51.454;6.718;2023-05-10T03:14:25;62.63;;;22.80;;
20559;SDS011;10438;51.454;6.718;2023-05-10T03:17:30;65.20;;;22.20;;
20559;SDS011;10438;51.454;6.718;2023-05-10T03:20:12;63.67;;;23.07;;
20559;SDS011;10438;51.454;6.718;2023-05-10T03:22:55;60.83;;;23.43;;
20559;SDS011;10438;51.454;6.718;2023-05-10T03:25:26;62.07;;;22.80;;
20559;SDS011;10438;51.454;6.718;2023-05-10T03:27:54;54.13;;;20.73;;
20559;SDS011;10438;51.454;6.718;2023-05-10T03:30:21;62.20;;;22.50;;
20559;SDS011;10438;51.454;6.718;2023-05-10T03:32:47;57.13;;;22.20;;
20559;SDS011;10438;51.454;6.718;2023-05-10T03:35:13;57.13;;;21.17;;
20559;SDS011;10438;51.454;6.718;2023-05-10T03:37:39;69.30;;;25.73;;
20559;SDS011;10438;51.454;6.718;2023-05-10T03:40:04;67.27;;;23.47;;
20559;SDS011;10438;51.454;6.718;2023-05-10T03:42:31;70.23;;;23.90;;
20559;SDS011;10438;51.454;6.718;2023-05-10T03:44:56;60.73;;;22.27;;
20559;SDS011;10438;51.454;6.718;2023-05-10T03:47:22;61.40;;;22.27;;
20559;SDS011;10438;51.454;6.718;2023-05-10T03:49:47;62.77;;;22.90;;
20559;SDS011;10438;51.454;6.718;2023-05-10T03:52:13;61.90;;;23.27;;
20559;SDS011;10438;51.454;6.718;2023-05-10T03:54:38;66.07;;;23.17;;
20559;SDS011;10438;51.454;6.718;2023-05-10T03:57:04;64.10;;;22.73;;
20559;SDS011;10438;51.454;6.718;2023-05-10T03:59:29;63.87;;;22.93;;
20559;SDS011;10438;51.454;6.718;2023-05-10T04:01:55;64.20;;;23.07;;
20559;SDS011;10438;51.454;6.718;2023-05-10T04:04:21;60.10;;;22.40;;
20559;SDS011;10438;51.454;6.718;2023-05-10T04:06:47;67.53;;;24.07;;
20559;SDS011;10438;51.454;6.718;2023-05-10T04:09:12;64.33;;;23.60;;
20559;SDS011;10438;51.454;6.718;2023-05-10T04:11:38;67.70;;;24.37;;
20559;SDS011;10438;51.454;6.718;2023-05-10T04:14:04;68.67;;;24.73;;
20559;SDS011;10438;51.454;6.718;2023-05-10T04:16:29;62.00;;;23.07;;
20559;SDS011;10438;51.454;6.718;2023-05-10T04:18:55;70.43;;;24.83;;
20559;SDS011;10438;51.454;6.718;2023-05-10T04:21:21;63.17;;;24.60;;
20559;SDS011;10438;51.454;6.718;2023-05-10T04:23:46;66.37;;;25.90;;
20559;SDS011;10438;51.454;6.718;2023-05-10T04:26:12;71.33;;;25.30;;
20559;SDS011;10438;51.454;6.718;2023-05-10T04:28:38;70.40;;;25.47;;
20559;SDS011;10438;51.454;6.718;2023-05-10T04:31:04;70.47;;;25.23;;
20559;SDS011;10438;51.454;6.718;2023-05-10T04:33:31;85.73;;;29.00;;
20559;SDS011;10438;51.454;6.718;2023-05-10T04:35:56;77.30;;;26.47;;
20559;SDS011;10438;51.454;6.718;2023-05-10T04:38:22;79.97;;;28.17;;
20559;SDS011;10438;51.454;6.718;2023-05-10T04:40:47;79.03;;;28.57;;
20559;SDS011;10438;51.454;6.718;2023-05-10T04:43:13;85.40;;;28.70;;
20559;SDS011;10438;51.454;6.718;2023-05-10T04:45:38;84.60;;;29.87;;
20559;SDS011;10438;51.454;6.718;2023-05-10T04:48:04;85.17;;;29.40;;
20559;SDS011;10438;51.454;6.718;2023-05-10T04:50:30;94.63;;;30.90;;
20559;SDS011;10438;51.454;6.718;2023-05-10T04:52:56;92.80;;;31.33;;
20559;SDS011;10438;51.454;6.718;2023-05-10T04:55:22;85.27;;;31.00;;
20559;SDS011;10438;51.454;6.718;2023-05-10T04:57:47;88.20;;;32.20;;
20559;SDS011;10438;51.454;6.718;2023-05-10T05:00:13;80.50;;;31.73;;
20559;SDS011;10438;51.454;6.718;2023-05-10T05:02:41;89.23;;;32.63;;
20559;SDS011;10438;51.454;6.718;2023-05-10T05:05:08;84.27;;;32.43;;
20559;SDS011;10438;51.454;6.718;2023-05-10T05:07:34;96.50;;;33.60;;
20559;SDS011;10438;51.454;6.718;2023-05-10T05:10:00;89.63;;;33.13;;
20559;SDS011;10438;51.454;6.718;2023-05-10T05:12:25;87.77;;;32.47;;
20559;SDS011;10438;51.454;6.718;2023-05-10T05:14:51;95.00;;;35.23;;
20559;SDS011;10438;51.454;6.718;2023-05-10T05:17:16;102.30;;;34.87;;
20559;SDS011;10438;51.454;6.718;2023-05-10T05:19:42;88.20;;;35.23;;
20559;SDS011;10438;51.454;6.718;2023-05-10T05:22:07;88.37;;;35.17;;
20559;SDS011;10438;51.454;6.718;2023-05-10T05:24:36;85.43;;;33.37;;
20559;SDS011;10438;51.454;6.718;2023-05-10T05:27:03;86.73;;;34.00;;
20559;SDS011;10438;51.454;6.718;2023-05-10T05:29:28;87.53;;;33.20;;
20559;SDS011;10438;51.454;6.718;2023-05-10T05:31:54;87.70;;;33.53;;
20559;SDS011;10438;51.454;6.718;2023-05-10T05:34:20;86.97;;;34.93;;
20559;SDS011;10438;51.454;6.718;2023-05-10T05:36:46;84.07;;;34.10;;
20559;SDS011;10438;51.454;6.718;2023-05-10T05:39:12;87.07;;;34.97;;
20559;SDS011;10438;51.454;6.718;2023-05-10T05:41:37;84.07;;;35.13;;
20559;SDS011;10438;51.454;6.718;2023-05-10T05:44:03;97.23;;;36.60;;
20559;SDS011;10438;51.454;6.718;2023-05-10T05:46:28;91.23;;;36.57;;
20559;SDS011;10438;51.454;6.718;2023-05-10T05:48:54;90.70;;;34.10;;
20559;SDS011;10438;51.454;6.718;2023-05-10T05:51:20;83.77;;;35.23;;
20559;SDS011;10438;51.454;6.718;2023-05-10T05:53:45;96.43;;;36.67;;
20559;SDS011;10438;51.454;6.718;2023-05-10T05:56:11;101.27;;;39.23;;
20559;SDS011;10438;51.454;6.718;2023-05-10T05:58:36;88.67;;;37.20;;
20559;SDS011;10438;51.454;6.718;2023-05-10T06:01:02;96.80;;;37.17;;
20559;SDS011;10438;51.454;6.718;2023-05-10T06:03:27;87.27;;;36.17;;
20559;SDS011;10438;51.454;6.718;2023-05-10T06:05:53;96.67;;;36.53;;
20559;SDS011;10438;51.454;6.718;2023-05-10T06:08:18;98.70;;;38.23;;
20559;SDS011;10438;51.454;6.718;2023-05-10T06:10:45;95.10;;;36.53;;
20559;SDS011;10438;51.454;6.718;2023-05-10T06:13:10;83.37;;;35.43;;
20559;SDS011;10438;51.454;6.718;2023-05-10T06:15:36;97.30;;;38.30;;
20559;SDS011;10438;51.454;6.718;2023-05-10T06:18:02;89.37;;;36.87;;
20559;SDS011;10438;51.454;6.718;2023-05-10T06:20:28;90.93;;;36.83;;
20559;SDS011;10438;51.454;6.718;2023-05-10T06:22:53;96.57;;;37.70;;
20559;SDS011;10438;51.454;6.718;2023-05-10T06:25:19;96.97;;;37.27;;
20559;SDS011;10438;51.454;6.718;2023-05-10T06:27:44;97.40;;;36.80;;
20559;SDS011;10438;51.454;6.718;2023-05-10T06:30:10;97.37;;;38.83;;
20559;SDS011;10438;51.454;6.718;2023-05-10T06:32:38;92.23;;;36.70;;
20559;SDS011;10438;51.454;6.718;2023-05-10T06:35:03;101.37;;;37.63;;
20559;SDS011;10438;51.454;6.718;2023-05-10T06:37:29;103.83;;;37.30;;
20559;SDS011;10438;51.454;6.718;2023-05-10T06:39:55;100.30;;;41.33;;
20559;SDS011;10438;51.454;6.718;2023-05-10T06:42:20;95.13;;;37.33;;
20559;SDS011;10438;51.454;6.718;2023-05-10T06:44:46;98.23;;;38.30;;
20559;SDS011;10438;51.454;6.718;2023-05-10T06:47:11;95.70;;;35.87;;
20559;SDS011;10438;51.454;6.718;2023-05-10T06:49:37;99.47;;;38.13;;
20559;SDS011;10438;51.454;6.718;2023-05-10T06:52:02;97.27;;;37.33;;
20559;SDS011;10438;51.454;6.718;2023-05-10T06:54:29;94.17;;;37.10;;
20559;SDS011;10438;51.454;6.718;2023-05-10T06:56:54;101.90;;;37.13;;
20559;SDS011;10438;51.454;6.718;2023-05-10T06:59:20;89.87;;;35.80;;
20559;SDS011;10438;51.454;6.718;2023-05-10T07:01:46;93.77;;;35.77;;
20559;SDS011;10438;51.454;6.718;2023-05-10T07:04:12;82.00;;;35.13;;
20559;SDS011;10438;51.454;6.718;2023-05-10T07:06:38;90.20;;;36.80;;
20559;SDS011;10438;51.454;6.718;2023-05-10T07:09:03;86.67;;;37.20;;
20559;SDS011;10438;51.454;6.718;2023-05-10T07:11:29;80.70;;;34.27;;
20559;SDS011;10438;51.454;6.718;2023-05-10T07:13:54;90.20;;;34.73;;
20559;SDS011;10438;51.454;6.718;2023-05-10T07:16:20;84.10;;;34.10;;
20559;SDS011;10438;51.454;6.718;2023-05-10T07:18:46;78.77;;;32.33;;
20559;SDS011;10438;51.454;6.718;2023-05-10T07:21:11;80.10;;;32.97;;
20559;SDS011;10438;51.454;6.718;2023-05-10T07:23:37;81.80;;;31.60;;
20559;SDS011;10438;51.454;6.718;2023-05-10T07:26:03;77.33;;;31.67;;
20559;SDS011;10438;51.454;6.718;2023-05-10T07:28:28;88.53;;;33.33;;
20559;SDS011;10438;51.454;6.718;2023-05-10T07:30:54;84.70;;;32.87;;
20559;SDS011;10438;51.454;6.718;2023-05-10T07:33:19;79.47;;;33.17;;
20559;SDS011;10438;51.454;6.718;2023-05-10T07:35:45;89.13;;;33.53;;
20559;SDS011;10438;51.454;6.718;2023-05-10T07:38:11;93.93;;;34.97;;
20559;SDS011;10438;51.454;6.718;2023-05-10T07:40:36;89.23;;;35.20;;
20559;SDS011;10438;51.454;6.718;2023-05-10T07:43:03;84.07;;;32.83;;
20559;SDS011;10438;51.454;6.718;2023-05-10T07:45:28;79.90;;;33.07;;
20559;SDS011;10438;51.454;6.718;2023-05-10T07:47:54;76.70;;;30.57;;
20559;SDS011;10438;51.454;6.718;2023-05-10T07:50:19;71.93;;;31.00;;
20559;SDS011;10438;51.454;6.718;2023-05-10T07:52:46;72.27;;;30.10;;
20559;SDS011;10438;51.454;6.718;2023-05-10T07:55:12;73.68;;;31.05;;
20559;SDS011;10438;51.454;6.718;2023-05-10T07:57:37;70.40;;;28.53;;
20559;SDS011;10438;51.454;6.718;2023-05-10T08:00:04;66.55;;;30.00;;
20559;SDS011;10438;51.454;6.718;2023-05-10T08:02:30;62.55;;;28.45;;
20559;SDS011;10438;51.454;6.718;2023-05-10T08:04:55;62.33;;;28.97;;
20559;SDS011;10438;51.454;6.718;2023-05-10T08:07:21;75.75;;;29.77;;
20559;SDS011;10438;51.454;6.718;2023-05-10T08:09:47;62.15;;;28.63;;
20559;SDS011;10438;51.454;6.718;2023-05-10T08:12:13;67.50;;;30.50;;
20559;SDS011;10438;51.454;6.718;2023-05-10T08:14:38;61.72;;;28.50;;
20559;SDS011;10438;51.454;6.718;2023-05-10T08:17:04;69.05;;;30.45;;
20559;SDS011;10438;51.454;6.718;2023-05-10T08:19:30;64.28;;;29.25;;
20559;SDS011;10438;51.454;6.718;2023-05-10T08:21:55;62.72;;;29.00;;
20559;SDS011;10438;51.454;6.718;2023-05-10T08:24:21;59.72;;;27.55;;
20559;SDS011;10438;51.454;6.718;2023-05-10T08:26:47;58.80;;;28.48;;
20559;SDS011;10438;51.454;6.718;2023-05-10T08:29:13;55.20;;;27.77;;
20559;SDS011;10438;51.454;6.718;2023-05-10T08:31:39;53.83;;;26.85;;
20559;SDS011;10438;51.454;6.718;2023-05-10T08:34:04;51.80;;;25.77;;
20559;SDS011;10438;51.454;6.718;2023-05-10T08:36:30;45.00;;;22.88;;
20559;SDS011;10438;51.454;6.718;2023-05-10T08:38:57;43.13;;;22.63;;
20559;SDS011;10438;51.454;6.718;2023-05-10T08:41:24;44.58;;;23.35;;
20559;SDS011;10438;51.454;6.718;2023-05-10T08:43:51;44.70;;;22.90;;
20559;SDS011;10438;51.454;6.718;2023-05-10T08:46:18;47.95;;;23.38;;
20559;SDS011;10438;51.454;6.718;2023-05-10T08:48:45;47.67;;;24.80;;
20559;SDS011;10438;51.454;6.718;2023-05-10T08:51:19;49.05;;;24.90;;
20559;SDS011;10438;51.454;6.718;2023-05-10T08:53:48;43.60;;;25.65;;
20559;SDS011;10438;51.454;6.718;2023-05-10T08:56:15;46.67;;;25.63;;
20559;SDS011;10438;51.454;6.718;2023-05-10T08:58:40;44.47;;;24.13;;
20559;SDS011;10438;51.454;6.718;2023-05-10T09:01:07;41.65;;;21.75;;
20559;SDS011;10438;51.454;6.718;2023-05-10T09:03:33;36.92;;;20.15;;
20559;SDS011;10438;51.454;6.718;2023-05-10T09:06:00;36.60;;;21.17;;
20559;SDS011;10438;51.454;6.718;2023-05-10T09:08:25;36.58;;;20.58;;
20559;SDS011;10438;51.454;6.718;2023-05-10T09:10:52;30.50;;;18.05;;
20559;SDS011;10438;51.454;6.718;2023-05-10T09:13:19;31.08;;;17.00;;
20559;SDS011;10438;51.454;6.718;2023-05-10T09:15:46;29.58;;;17.00;;
20559;SDS011;10438;51.454;6.718;2023-05-10T09:18:12;24.63;;;15.40;;
20559;SDS011;10438;51.454;6.718;2023-05-10T09:20:38;30.42;;;17.30;;
20559;SDS011;10438;51.454;6.718;2023-05-10T09:23:04;32.35;;;16.65;;
20559;SDS011;10438;51.454;6.718;2023-05-10T09:25:30;32.05;;;17.63;;
20559;SDS011;10438;51.454;6.718;2023-05-10T09:27:58;27.70;;;17.05;;
20559;SDS011;10438;51.454;6.718;2023-05-10T09:30:25;29.45;;;17.60;;
20559;SDS011;10438;51.454;6.718;2023-05-10T09:32:52;27.40;;;17.33;;
20559;SDS011;10438;51.454;6.718;2023-05-10T09:35:20;29.83;;;16.30;;
20559;SDS011;10438;51.454;6.718;2023-05-10T09:37:47;29.70;;;16.67;;
20559;SDS011;10438;51.454;6.718;2023-05-10T09:40:14;31.52;;;17.77;;
20559;SDS011;10438;51.454;6.718;2023-05-10T09:42:51;30.08;;;17.67;;
20559;SDS011;10438;51.454;6.718;2023-05-10T09:45:28;31.30;;;18.05;;
20559;SDS011;10438;51.454;6.718;2023-05-10T09:47:55;27.95;;;17.58;;
20559;SDS011;10438;51.454;6.718;2023-05-10T09:50:22;33.50;;;17.60;;
20559;SDS011;10438;51.454;6.718;2023-05-10T09:55:16;33.80;;;18.77;;
20559;SDS011;10438;51.454;6.718;2023-05-10T09:57:47;31.10;;;18.30;;
20559;SDS011;10438;51.454;6.718;2023-05-10T10:00:17;32.72;;;17.70;;
20559;SDS011;10438;51.454;6.718;2023-05-10T10:02:44;26.15;;;16.88;;
20559;SDS011;10438;51.454;6.718;2023-05-10T10:05:29;31.77;;;17.63;;
20559;SDS011;10438;51.454;6.718;2023-05-10T10:07:56;33.03;;;18.23;;
20559;SDS011;10438;51.454;6.718;2023-05-10T10:10:26;32.75;;;17.67;;
20559;SDS011;10438;51.454;6.718;2023-05-10T10:12:53;33.72;;;17.25;;
20559;SDS011;10438;51.454;6.718;2023-05-10T10:15:20;27.10;;;17.17;;
20559;SDS011;10438;51.454;6.718;2023-05-10T10:17:46;28.75;;;17.20;;
20559;SDS011;10438;51.454;6.718;2023-05-10T10:20:14;27.33;;;16.23;;
20559;SDS011;10438;51.454;6.718;2023-05-10T10:22:40;28.77;;;16.08;;
20559;SDS011;10438;51.454;6.718;2023-05-10T10:25:06;31.67;;;17.88;;
20559;SDS011;10438;51.454;6.718;2023-05-10T10:27:42;30.30;;;17.35;;
20559;SDS011;10438;51.454;6.718;2023-05-10T10:30:39;33.20;;;18.35;;
20559;SDS011;10438;51.454;6.718;2023-05-10T10:36:09;26.77;;;17.40;;
20559;SDS011;10438;51.454;6.718;2023-05-10T10:38:37;31.77;;;18.60;;
20559;SDS011;10438;51.454;6.718;2023-05-10T10:52:21;31.73;;;18.98;;
20559;SDS011;10438;51.454;6.718;2023-05-10T10:57:27;28.77;;;17.88;;
20559;SDS011;10438;51.454;6.718;2023-05-10T11:02:44;28.65;;;18.02;;
20559;SDS011;10438;51.454;6.718;2023-05-10T11:05:23;24.45;;;16.55;;
20559;SDS011;10438;51.454;6.718;2023-05-10T11:07:54;29.83;;;17.73;;
20559;SDS011;10438;51.454;6.718;2023-05-10T11:10:20;25.67;;;16.50;;
20559;SDS011;10438;51.454;6.718;2023-05-10T11:12:53;23.63;;;15.88;;
20559;SDS011;10438;51.454;6.718;2023-05-10T11:15:36;23.20;;;15.05;;
20559;SDS011;10438;51.454;6.718;2023-05-10T11:18:20;20.60;;;14.48;;
20559;SDS011;10438;51.454;6.718;2023-05-10T11:20:51;25.40;;;15.00;;
20559;SDS011;10438;51.454;6.718;2023-05-10T11:23:17;23.25;;;14.25;;
20559;SDS011;10438;51.454;6.718;2023-05-10T11:25:44;20.80;;;14.13;;
20559;SDS011;10438;51.454;6.718;2023-05-10T11:28:11;20.30;;;14.43;;
20559;SDS011;10438;51.454;6.718;2023-05-10T11:30:38;22.30;;;14.48;;
20559;SDS011;10438;51.454;6.718;2023-05-10T11:33:04;22.15;;;14.45;;
20559;SDS011;10438;51.454;6.718;2023-05-10T11:35:31;19.67;;;13.75;;
20559;SDS011;10438;51.454;6.718;2023-05-10T11:38:04;20.88;;;13.50;;
20559;SDS011;10438;51.454;6.718;2023-05-10T11:40:34;22.05;;;13.07;;
20559;SDS011;10438;51.454;6.718;2023-05-10T11:43:01;22.48;;;12.68;;
20559;SDS011;10438;51.454;6.718;2023-05-10T11:45:27;17.10;;;10.98;;
20559;SDS011;10438;51.454;6.718;2023-05-10T11:47:54;16.67;;;10.65;;
20559;SDS011;10438;51.454;6.718;2023-05-10T11:50:20;17.58;;;10.13;;
20559;SDS011;10438;51.454;6.718;2023-05-10T11:52:50;23.30;;;11.13;;
20559;SDS011;10438;51.454;6.718;2023-05-10T11:55:16;16.90;;;10.20;;
20559;SDS011;10438;51.454;6.718;2023-05-10T11:57:42;17.63;;;9.63;;
20559;SDS011;10438;51.454;6.718;2023-05-10T12:00:10;16.27;;;9.13;;
20559;SDS011;10438;51.454;6.718;2023-05-10T12:02:37;13.35;;;8.23;;
20559;SDS011;10438;51.454;6.718;2023-05-10T12:05:03;14.13;;;8.43;;
20559;SDS011;10438;51.454;6.718;2023-05-10T12:07:30;13.18;;;8.45;;
20559;SDS011;10438;51.454;6.718;2023-05-10T12:10:11;11.65;;;8.10;;
20559;SDS011;10438;51.454;6.718;2023-05-10T12:12:45;12.60;;;7.68;;
20559;SDS011;10438;51.454;6.718;2023-05-10T12:15:18;11.68;;;8.05;;
20559;SDS011;10438;51.454;6.718;2023-05-10T12:17:48;12.35;;;7.68;;
20559;SDS011;10438;51.454;6.718;2023-05-10T12:22:54;14.57;;;8.25;;
20559;SDS011;10438;51.454;6.718;2023-05-10T12:25:22;12.15;;;7.68;;
20559;SDS011;10438;51.454;6.718;2023-05-10T12:27:50;13.60;;;8.20;;
20559;SDS011;10438;51.454;6.718;2023-05-10T12:30:24;17.20;;;8.45;;
20559;SDS011;10438;51.454;6.718;2023-05-10T12:32:51;12.40;;;8.20;;
20559;SDS011;10438;51.454;6.718;2023-05-10T12:35:18;12.40;;;7.53;;
20559;SDS011;10438;51.454;6.718;2023-05-10T12:37:49;11.63;;;7.88;;
20559;SDS011;10438;51.454;6.718;2023-05-10T12:40:15;13.98;;;8.23;;
20559;SDS011;10438;51.454;6.718;2023-05-10T12:42:41;11.25;;;7.40;;
20559;SDS011;10438;51.454;6.718;2023-05-10T12:45:07;10.25;;;6.72;;
20559;SDS011;10438;51.454;6.718;2023-05-10T12:47:34;14.20;;;6.85;;
20559;SDS011;10438;51.454;6.718;2023-05-10T12:50:00;9.25;;;6.20;;
20559;SDS011;10438;51.454;6.718;2023-05-10T12:52:27;16.42;;;6.70;;
20559;SDS011;10438;51.454;6.718;2023-05-10T12:54:53;8.77;;;5.70;;
20559;SDS011;10438;51.454;6.718;2023-05-10T12:57:19;13.20;;;6.88;;
20559;SDS011;10438;51.454;6.718;2023-05-10T12:59:45;11.70;;;5.82;;
20559;SDS011;10438;51.454;6.718;2023-05-10T13:02:11;9.90;;;6.15;;
20559;SDS011;10438;51.454;6.718;2023-05-10T13:04:36;11.23;;;5.88;;
20559;SDS011;10438;51.454;6.718;2023-05-10T13:07:05;9.00;;;6.22;;
20559;SDS011;10438;51.454;6.718;2023-05-10T13:09:31;9.80;;;6.30;;
20559;SDS011;10438;51.454;6.718;2023-05-10T13:11:56;10.82;;;5.60;;
20559;SDS011;10438;51.454;6.718;2023-05-10T13:14:22;9.77;;;5.18;;
20559;SDS011;10438;51.454;6.718;2023-05-10T13:16:47;10.90;;;5.70;;
20559;SDS011;10438;51.454;6.718;2023-05-10T13:19:13;8.38;;;4.97;;
20559;SDS011;10438;51.454;6.718;2023-05-10T13:21:39;11.85;;;6.63;;
20559;SDS011;10438;51.454;6.718;2023-05-10T13:24:09;8.77;;;5.43;;
20559;SDS011;10438;51.454;6.718;2023-05-10T13:26:35;9.07;;;5.63;;
20559;SDS011;10438;51.454;6.718;2023-05-10T13:29:01;9.20;;;5.18;;
20559;SDS011;10438;51.454;6.718;2023-05-10T13:31:27;7.78;;;5.47;;
20559;SDS011;10438;51.454;6.718;2023-05-10T13:33:52;8.45;;;5.40;;
20559;SDS011;10438;51.454;6.718;2023-05-10T13:36:18;9.52;;;6.30;;
20559;SDS011;10438;51.454;6.718;2023-05-10T13:38:43;10.75;;;6.05;;
20559;SDS011;10438;51.454;6.718;2023-05-10T13:41:09;12.65;;;6.53;;
20559;SDS011;10438;51.454;6.718;2023-05-10T13:43:35;12.02;;;7.38;;
20559;SDS011;10438;51.454;6.718;2023-05-10T13:46:01;11.13;;;7.50;;
20559;SDS011;10438;51.454;6.718;2023-05-10T13:48:26;11.43;;;7.95;;
20559;SDS011;10438;51.454;6.718;2023-05-10T13:50:52;12.77;;;7.35;;
20559;SDS011;10438;51.454;6.718;2023-05-10T13:53:17;11.73;;;7.85;;
20559;SDS011;10438;51.454;6.718;2023-05-10T13:55:43;11.25;;;7.43;;
20559;SDS011;10438;51.454;6.718;2023-05-10T13:58:08;12.25;;;8.20;;
20559;SDS011;10438;51.454;6.718;2023-05-10T14:00:34;10.25;;;7.03;;
20559;SDS011;10438;51.454;6.718;2023-05-10T14:03:00;13.90;;;7.85;;
20559;SDS011;10438;51.454;6.718;2023-05-10T14:05:25;9.88;;;7.00;;
20559;SDS011;10438;51.454;6.718;2023-05-10T14:07:51;10.07;;;6.28;;
20559;SDS011;10438;51.454;6.718;2023-05-10T14:10:17;10.68;;;5.82;;
20559;SDS011;10438;51.454;6.718;2023-05-10T14:12:42;10.52;;;8.15;;
20559;SDS011;10438;51.454;6.718;2023-05-10T14:15:08;10.95;;;6.75;;
20559;SDS011;10438;51.454;6.718;2023-05-10T14:17:36;11.07;;;8.68;;
20559;SDS011;10438;51.454;6.718;2023-05-10T14:20:01;14.00;;;9.57;;
20559;SDS011;10438;51.454;6.718;2023-05-10T14:22:27;11.00;;;7.40;;
20559;SDS011;10438;51.454;6.718;2023-05-10T14:24:53;10.35;;;5.75;;
20559;SDS011;10438;51.454;6.718;2023-05-10T14:27:19;8.75;;;6.20;;
20559;SDS011;10438;51.454;6.718;2023-05-10T14:29:44;11.38;;;7.50;;
20559;SDS011;10438;51.454;6.718;2023-05-10T14:32:10;9.75;;;6.68;;
20559;SDS011;10438;51.454;6.718;2023-05-10T14:34:35;12.52;;;7.50;;
20559;SDS011;10438;51.454;6.718;2023-05-10T14:37:01;10.88;;;6.85;;
20559;SDS011;10438;51.454;6.718;2023-05-10T14:39:26;11.95;;;7.88;;
20559;SDS011;10438;51.454;6.718;2023-05-10T14:41:54;13.00;;;8.77;;
20559;SDS011;10438;51.454;6.718;2023-05-10T14:44:20;14.18;;;9.70;;
20559;SDS011;10438;51.454;6.718;2023-05-10T14:46:45;15.18;;;11.85;;
20559;SDS011;10438;51.454;6.718;2023-05-10T14:49:11;16.80;;;12.48;;
20559;SDS011;10438;51.454;6.718;2023-05-10T14:51:36;23.88;;;13.10;;
20559;SDS011;10438;51.454;6.718;2023-05-10T14:54:02;18.15;;;12.93;;
20559;SDS011;10438;51.454;6.718;2023-05-10T14:56:27;17.45;;;12.57;;
20559;SDS011;10438;51.454;6.718;2023-05-10T14:58:53;16.20;;;12.15;;